Time;durP1;ratioP1;P1;durP2;ratioP2;P2;SDS_P1;SDS_P2;PMS_P1;PMS_P2;Temp;Humidity;BMP_temperature;BMP_pressure;BME280_temperature;BME280_humidity;BME280_pressure;Samples;Min_cycle;Max_cycle;Signal;HPM_P1;HPM_P2
2022/07/18 00:02:06;;;;;;;1.75;1.25;;;14.80;77.00;;;;;;5032234;23;20045;-89
2022/07/18 00:04:32;;;;;;;2.65;1.20;;;14.70;76.50;;;;;;5030721;28;20026;-90
2022/07/18 00:06:58;;;;;;;5.82;1.70;;;14.70;76.20;;;;;;5011883;28;20038;-89
2022/07/18 00:09:31;;;;;;;4.80;1.30;;;14.80;75.20;;;;;;5011859;28;20036;-90
2022/07/18 00:11:57;;;;;;;6.80;1.65;;;14.80;75.50;;;;;;5012029;28;20042;-89
2022/07/18 00:14:23;;;;;;;2.17;1.10;;;14.80;75.00;;;;;;5010820;28;20133;-90
2022/07/18 00:16:49;;;;;;;3.75;1.42;;;14.70;74.40;;;;;;5013138;28;20101;-89
2022/07/18 00:19:16;;;;;;;3.50;1.10;;;14.80;74.20;;;;;;5033723;28;20037;-90
2022/07/18 00:21:49;;;;;;;2.00;1.25;;;14.70;73.80;;;;;;5023260;28;20025;-89
2022/07/18 00:24:15;;;;;;;1.65;1.00;;;14.80;75.50;;;;;;5033532;28;20049;-90
2022/07/18 00:26:41;;;;;;;1.17;0.93;;;14.80;74.90;;;;;;5037300;28;20471;-89
2022/07/18 00:29:06;;;;;;;2.67;1.38;;;14.80;74.40;;;;;;5034631;28;20026;-89
2022/07/18 00:31:32;;;;;;;3.08;1.10;;;14.80;74.40;;;;;;5029757;28;20056;-89
2022/07/18 00:33:58;;;;;;;5.05;1.63;;;14.80;74.40;;;;;;5035070;28;20060;-89
2022/07/18 00:36:35;;;;;;;2.22;1.00;;;14.70;75.30;;;;;;5026135;28;20029;-89
2022/07/18 00:39:00;;;;;;;5.32;1.67;;;14.70;76.10;;;;;;5026842;28;20029;-90
2022/07/18 00:41:26;;;;;;;4.22;1.10;;;14.70;77.00;;;;;;5019714;28;20109;-90
2022/07/18 00:43:52;;;;;;;4.13;1.10;;;14.60;76.90;;;;;;5023861;28;20032;-89
2022/07/18 00:46:28;;;;;;;2.03;1.30;;;14.60;77.60;;;;;;5028997;28;20072;-89
2022/07/18 00:48:54;;;;;;;1.65;1.08;;;14.50;76.60;;;;;;5024773;28;20407;-89
2022/07/18 00:51:20;;;;;;;3.25;1.27;;;14.50;76.00;;;;;;5029730;28;20121;-89
2022/07/18 00:53:47;;;;;;;2.55;1.10;;;14.50;76.10;;;;;;5017169;28;20050;-89
2022/07/18 00:56:39;;;;;;;3.22;0.88;;;14.40;77.00;;;;;;5028221;28;20040;-89
2022/07/18 00:59:05;;;;;;;4.20;1.33;;;14.50;77.70;;;;;;5027096;28;20025;-89
2022/07/18 01:04:22;;;;;;;2.03;1.20;;;14.50;75.70;;;;;;5026506;28;20068;-89
2022/07/18 01:07:05;;;;;;;3.13;1.48;;;14.50;76.30;;;;;;5025643;28;20037;-89
2022/07/18 01:09:32;;;;;;;2.28;1.00;;;14.50;76.60;;;;;;5022264;28;20029;-89
2022/07/18 01:11:58;;;;;;;3.97;1.48;;;14.50;77.60;;;;;;5027462;28;20033;-89
2022/07/18 01:14:33;;;;;;;5.93;2.75;;;14.50;78.00;;;;;;5027822;28;20033;-89
2022/07/18 01:16:59;;;;;;;3.13;1.30;;;14.40;79.40;;;;;;5017119;28;20095;-89
2022/07/18 01:19:25;;;;;;;6.18;1.40;;;14.40;79.00;;;;;;5022584;28;20033;-89
2022/07/18 01:21:51;;;;;;;4.05;1.15;;;14.40;78.80;;;;;;5021710;28;20045;-89
2022/07/18 01:24:16;;;;;;;8.05;2.40;;;14.30;78.00;;;;;;5022621;28;20026;-88
2022/07/18 01:26:42;;;;;;;3.38;1.30;;;14.30;77.70;;;;;;5012585;28;20391;-89
2022/07/18 01:29:14;;;;;;;1.48;1.08;;;14.30;77.90;;;;;;5028085;28;20056;-89
2022/07/18 01:31:40;;;;;;;1.63;1.10;;;14.30;77.30;;;;;;5012695;28;20034;-90
2022/07/18 01:34:06;;;;;;;7.35;1.25;;;14.30;76.40;;;;;;5012253;28;20048;-89
2022/07/18 01:36:32;;;;;;;5.53;1.40;;;14.30;75.90;;;;;;5012491;28;20136;-89
2022/07/18 01:38:57;;;;;;;3.72;1.63;;;14.30;76.30;;;;;;5012708;28;20029;-89
2022/07/18 01:41:31;;;;;;;2.38;1.52;;;14.30;76.40;;;;;;5013396;28;20045;-89
2022/07/18 01:43:56;;;;;;;2.88;1.30;;;14.20;76.30;;;;;;5012194;28;20030;-89
2022/07/18 01:46:22;;;;;;;2.80;1.40;;;14.20;76.70;;;;;;5011332;28;20037;-89
2022/07/18 01:48:48;;;;;;;3.97;1.40;;;14.20;75.80;;;;;;5018394;28;20580;-88
2022/07/18 01:51:14;;;;;;;2.97;1.50;;;14.30;75.40;;;;;;5024808;28;20038;-89
2022/07/18 01:53:54;;;;;;;4.38;1.30;;;14.30;75.80;;;;;;5018281;28;20038;-89
2022/07/18 01:56:19;;;;;;;2.25;1.40;;;14.30;75.50;;;;;;5035523;28;20091;-89
2022/07/18 01:58:45;;;;;;;2.97;1.45;;;14.30;76.20;;;;;;5027232;28;20383;-89
2022/07/18 02:01:11;;;;;;;2.63;1.70;;;14.30;75.70;;;;;;5021310;28;20042;-89
2022/07/18 02:03:37;;;;;;;2.03;1.40;;;14.20;76.10;;;;;;5025469;28;20037;-88
2022/07/18 02:06:08;;;;;;;4.18;1.58;;;14.30;76.70;;;;;;5013208;28;20048;-88
2022/07/18 02:08:34;;;;;;;8.40;1.60;;;14.20;76.30;;;;;;5025475;28;20033;-89
2022/07/18 02:11:00;;;;;;;2.28;1.30;;;14.20;76.60;;;;;;5034017;23;20506;-89
2022/07/18 02:13:25;;;;;;;3.45;1.67;;;14.30;76.20;;;;;;4952594;29;20049;-88
2022/07/18 02:15:55;;;;;;;3.53;1.70;;;14.30;76.20;;;;;;4949337;28;20061;-89
2022/07/18 02:18:27;;;;;;;14.10;2.25;;;14.30;76.90;;;;;;4947980;29;20035;-88
2022/07/18 02:20:53;;;;;;;5.70;1.48;;;14.30;76.80;;;;;;4965858;28;20035;-88
2022/07/18 02:23:18;;;;;;;3.35;1.70;;;14.30;77.70;;;;;;4951579;28;20174;-89
2022/07/18 02:25:44;;;;;;;3.35;1.55;;;14.30;76.70;;;;;;4957031;28;20027;-89
2022/07/18 02:28:10;;;;;;;2.90;1.73;;;14.20;76.90;;;;;;4947174;28;20040;-88
2022/07/18 02:30:44;;;;;;;3.70;1.50;;;14.30;76.10;;;;;;4938321;29;20078;-89
2022/07/18 02:33:10;;;;;;;3.70;1.55;;;14.40;76.10;;;;;;4950712;29;20504;-89
2022/07/18 02:35:36;;;;;;;4.07;1.85;;;14.40;76.20;;;;;;4937635;29;20063;-89
2022/07/18 02:38:02;;;;;;;4.70;1.83;;;14.40;76.30;;;;;;4929875;29;20079;-88
2022/07/18 02:40:28;;;;;;;4.13;1.73;;;14.40;76.30;;;;;;4939065;28;20400;-89
2022/07/18 02:43:04;;;;;;;3.53;1.70;;;14.40;76.80;;;;;;4929553;29;20038;-89
2022/07/18 02:45:30;;;;;;;2.65;1.52;;;14.30;78.00;;;;;;4963399;28;20039;-89
2022/07/18 02:47:56;;;;;;;2.63;1.23;;;14.30;78.20;;;;;;4936656;29;20042;-89
2022/07/18 02:50:22;;;;;;;2.33;1.40;;;14.30;77.50;;;;;;4936280;29;20491;-88
2022/07/18 02:52:48;;;;;;;2.90;1.80;;;14.30;77.80;;;;;;4951607;28;20035;-87
2022/07/18 02:55:22;;;;;;;4.30;1.58;;;14.40;75.30;;;;;;4931994;29;20031;-89
2022/07/18 02:57:49;;;;;;;3.63;1.63;;;14.80;73.10;;;;;;4948870;29;20031;-89
2022/07/18 03:00:16;;;;;;;7.13;1.70;;;15.20;71.50;;;;;;4933549;29;20043;-88
2022/07/18 03:02:43;;;;;;;3.40;1.60;;;15.30;70.40;;;;;;4933363;29;20027;-89
2022/07/18 03:05:17;;;;;;;4.45;1.60;;;15.50;69.60;;;;;;4933733;29;20490;-89
2022/07/18 03:07:43;;;;;;;5.65;1.48;;;15.60;69.60;;;;;;4949421;29;20048;-89
2022/07/18 03:10:09;;;;;;;8.30;1.83;;;15.60;68.80;;;;;;4930702;29;20030;-89
2022/07/18 03:12:35;;;;;;;4.72;1.33;;;15.60;69.00;;;;;;4930876;29;20134;-89
2022/07/18 03:15:01;;;;;;;2.17;1.48;;;15.60;69.10;;;;;;4935236;29;20182;-89
2022/07/18 03:17:27;;;;;;;5.18;1.33;;;15.70;69.10;;;;;;4931160;29;20032;-89
2022/07/18 03:19:59;;;;;;;6.05;1.70;;;15.50;69.20;;;;;;4946564;29;20453;-90
2022/07/18 03:22:24;;;;;;;3.15;1.38;;;15.40;70.10;;;;;;4947119;28;20030;-89
2022/07/18 03:24:50;;;;;;;4.32;1.30;;;15.30;70.90;;;;;;4949672;29;20031;-89
2022/07/18 03:27:16;;;;;;;5.05;1.63;;;15.30;69.50;;;;;;4932625;29;20083;-89
2022/07/18 03:29:42;;;;;;;4.70;1.40;;;15.40;69.40;;;;;;4934829;29;20053;-89
2022/07/18 03:32:15;;;;;;;3.88;2.20;;;15.40;69.90;;;;;;4934055;29;20035;-89
2022/07/18 03:34:42;;;;;;;3.95;1.50;;;15.30;70.00;;;;;;4930722;29;20110;-89
2022/07/18 03:37:07;;;;;;;3.97;1.70;;;15.20;70.10;;;;;;4937843;29;20396;-88
2022/07/18 03:39:33;;;;;;;4.68;1.42;;;15.20;71.10;;;;;;4927931;29;20041;-90
2022/07/18 03:41:59;;;;;;;3.90;1.65;;;15.20;70.60;;;;;;4927017;29;20042;-89
2022/07/18 03:44:25;;;;;;;3.22;1.65;;;15.20;69.80;;;;;;4948867;29;20146;-89
2022/07/18 03:46:56;;;;;;;4.10;1.30;;;15.20;69.60;;;;;;4942024;29;20035;-89
2022/07/18 03:49:22;;;;;;;4.35;1.42;;;15.20;70.50;;;;;;4944692;29;20033;-89
2022/07/18 03:51:48;;;;;;;3.40;1.45;;;15.30;69.80;;;;;;4927494;29;20027;-89
2022/07/18 03:54:14;;;;;;;4.10;1.50;;;15.30;69.20;;;;;;4929649;29;20046;-89
2022/07/18 03:56:40;;;;;;;4.68;1.52;;;15.40;69.40;;;;;;4935699;29;20067;-90
2022/07/18 03:59:13;;;;;;;9.43;1.20;;;15.30;68.70;;;;;;4945603;28;20046;-89
2022/07/18 04:01:39;;;;;;;5.07;1.52;;;15.50;68.60;;;;;;4967634;28;20032;-90
2022/07/18 04:04:05;;;;;;;2.05;1.52;;;15.60;67.80;;;;;;4938434;28;20027;-89
2022/07/18 04:06:30;;;;;;;4.82;1.65;;;15.70;67.10;;;;;;4944765;29;20202;-89
2022/07/18 04:08:56;;;;;;;3.03;1.45;;;15.80;67.50;;;;;;4934352;29;20030;-89
2022/07/18 04:11:23;;;;;;;3.20;1.35;;;15.90;67.80;;;;;;4929690;29;20463;-89
2022/07/18 04:14:14;;;;;;;1.92;1.20;;;15.90;67.70;;;;;;4946278;28;20050;-89
2022/07/18 04:16:50;;;;;;;4.15;1.80;;;16.00;67.50;;;;;;4934349;29;20039;-89
2022/07/18 04:19:17;;;;;;;4.68;1.48;;;16.00;67.40;;;;;;4941984;28;20043;-89
2022/07/18 04:21:43;;;;;;;2.75;1.42;;;16.10;65.90;;;;;;4958042;28;20106;-89
2022/07/18 04:24:09;;;;;;;3.13;1.05;;;16.20;66.90;;;;;;4941951;28;20023;-89
2022/07/18 04:26:35;;;;;;;2.22;1.00;;;16.20;66.40;;;;;;4942659;28;20047;-88
2022/07/18 04:29:06;;;;;;;1.58;1.17;;;16.30;67.30;;;;;;4935332;29;20070;-89
2022/07/18 04:31:32;;;;;;;3.08;1.13;;;16.40;67.00;;;;;;5006425;23;20321;-89
2022/07/18 04:33:58;;;;;;;2.72;1.35;;;16.40;66.00;;;;;;4964980;28;20031;-89
2022/07/18 04:36:25;;;;;;;3.58;1.58;;;16.50;66.50;;;;;;4980831;28;20443;-88
2022/07/18 04:38:51;;;;;;;6.53;1.30;;;16.50;66.40;;;;;;4980867;28;20040;-89
2022/07/18 04:41:24;;;;;;;2.17;1.30;;;16.50;67.10;;;;;;4987192;28;20046;-89
2022/07/18 04:43:51;;;;;;;1.80;1.40;;;16.50;68.00;;;;;;5003683;28;20106;-89
2022/07/18 04:46:17;;;;;;;3.17;1.13;;;16.60;66.90;;;;;;4969965;28;20118;-89
2022/07/18 04:48:43;;;;;;;2.38;1.30;;;16.60;67.30;;;;;;4975480;28;20470;-88
2022/07/18 04:51:08;;;;;;;2.30;1.20;;;16.70;66.10;;;;;;4980738;28;20038;-89
2022/07/18 04:53:42;;;;;;;3.75;1.20;;;16.80;66.00;;;;;;4967256;28;20026;-89
2022/07/18 04:56:08;;;;;;;2.35;1.15;;;16.90;67.80;;;;;;4975405;28;20062;-88
2022/07/18 04:58:34;;;;;;;2.83;1.20;;;16.90;67.10;;;;;;4995228;28;20038;-89
2022/07/18 05:01:00;;;;;;;5.68;1.45;;;17.00;67.50;;;;;;4967737;28;20030;-88
2022/07/18 05:03:26;;;;;;;2.47;1.20;;;17.10;68.50;;;;;;4964644;28;20034;-88
2022/07/18 05:05:51;;;;;;;7.88;1.67;;;17.10;68.90;;;;;;4974685;28;20034;-89
2022/07/18 05:08:23;;;;;;;3.78;1.30;;;17.20;68.70;;;;;;4972655;28;20069;-88
2022/07/18 05:10:49;;;;;;;2.63;1.35;;;17.30;68.30;;;;;;4999773;28;20026;-90
2022/07/18 05:13:15;;;;;;;5.00;1.60;;;17.40;67.90;;;;;;4977251;28;20387;-89
2022/07/18 05:15:40;;;;;;;2.38;1.10;;;17.50;69.00;;;;;;4971962;28;20387;-88
2022/07/18 05:18:07;;;;;;;6.93;1.70;;;17.70;66.20;;;;;;4959462;28;20034;-88
2022/07/18 05:20:42;;;;;;;4.28;1.70;;;17.80;66.90;;;;;;4985509;28;20030;-89
2022/07/18 05:23:08;;;;;;;3.38;1.25;;;18.00;67.60;;;;;;4984337;28;20038;-89
2022/07/18 05:25:34;;;;;;;1.75;1.10;;;18.10;67.30;;;;;;4975446;28;20026;-89
2022/07/18 05:28:00;;;;;;;2.05;1.40;;;18.20;66.20;;;;;;4986020;28;20030;-88
2022/07/18 05:30:26;;;;;;;7.88;1.40;;;18.30;67.00;;;;;;4971995;28;20480;-89
2022/07/18 05:32:59;;;;;;;3.17;1.50;;;18.50;65.40;;;;;;4997521;28;20038;-89
2022/07/18 05:35:25;;;;;;;5.43;1.33;;;18.60;66.20;;;;;;4978568;28;20109;-88
2022/07/18 05:37:51;;;;;;;5.20;1.75;;;18.70;66.40;;;;;;4983389;28;20022;-89
2022/07/18 05:40:17;;;;;;;3.15;1.58;;;18.90;66.20;;;;;;4968564;28;20084;-89
2022/07/18 05:42:43;;;;;;;1.98;0.90;;;19.00;65.60;;;;;;4967574;28;20034;-87
2022/07/18 05:45:18;;;;;;;3.05;1.40;;;19.20;64.10;;;;;;4980050;28;20039;-88
2022/07/18 05:47:44;;;;;;;2.08;1.20;;;19.40;62.30;;;;;;4970453;28;20034;-88
2022/07/18 05:50:10;;;;;;;3.70;1.30;;;19.70;61.20;;;;;;5001828;28;20026;-88
2022/07/18 05:52:36;;;;;;;3.95;1.13;;;19.80;62.20;;;;;;4978182;28;20046;-88
2022/07/18 05:55:02;;;;;;;4.18;1.42;;;20.00;59.90;;;;;;4990489;28;20399;-89
2022/07/18 05:57:35;;;;;;;10.07;1.42;;;20.00;60.80;;;;;;4968261;28;20039;-87
2022/07/18 06:00:08;;;;;;;3.13;1.63;;;20.10;60.60;;;;;;4981320;28;20034;-89
2022/07/18 06:02:34;;;;;;;5.78;1.30;;;20.20;59.70;;;;;;4983835;28;20057;-87
2022/07/18 06:05:00;;;;;;;2.83;0.90;;;20.20;59.60;;;;;;4986726;28;20546;-89
2022/07/18 06:07:34;;;;;;;3.05;1.27;;;20.30;58.80;;;;;;4982554;28;20034;-88
2022/07/18 06:10:00;;;;;;;3.08;1.48;;;20.30;58.60;;;;;;4979564;28;20038;-89
2022/07/18 06:12:30;;;;;;;2.05;1.20;;;20.30;58.40;;;;;;4966952;28;20334;-88
2022/07/18 06:14:57;;;;;;;3.70;1.40;;;20.40;57.90;;;;;;4974348;28;20097;-88
2022/07/18 06:17:32;;;;;;;3.65;1.52;;;20.50;58.00;;;;;;4982652;28;20027;-89
2022/07/18 06:19:57;;;;;;;3.00;1.50;;;20.60;58.10;;;;;;4999842;28;20038;-88
2022/07/18 06:22:24;;;;;;;3.17;1.35;;;20.70;57.80;;;;;;4967605;28;20027;-89
2022/07/18 06:24:49;;;;;;;3.00;1.30;;;20.80;57.80;;;;;;4959731;28;20033;-88
2022/07/18 06:27:15;;;;;;;2.08;1.48;;;20.90;56.60;;;;;;4956789;28;20023;-88
2022/07/18 06:29:50;;;;;;;2.85;1.52;;;21.10;55.90;;;;;;4963185;28;20416;-86
2022/07/18 06:32:15;;;;;;;5.70;1.95;;;21.20;55.10;;;;;;4995446;28;20026;-89
2022/07/18 06:34:41;;;;;;;4.03;1.30;;;21.30;55.30;;;;;;4980075;28;20041;-87
2022/07/18 06:37:07;;;;;;;4.93;1.52;;;21.40;54.80;;;;;;4982861;28;20034;-87
2022/07/18 06:39:33;;;;;;;4.38;1.33;;;21.50;55.10;;;;;;4965513;28;20125;-87
2022/07/18 06:42:07;;;;;;;3.15;1.40;;;21.50;55.60;;;;;;4979918;28;20131;-87
2022/07/18 06:44:33;;;;;;;4.45;1.40;;;21.50;54.80;;;;;;4999105;28;20121;-88
2022/07/18 06:46:59;;;;;;;2.47;1.20;;;21.50;55.90;;;;;;4963356;28;20133;-87
2022/07/18 06:49:25;;;;;;;1.70;1.27;;;21.60;55.10;;;;;;4974357;28;20419;-88
2022/07/18 06:51:52;;;;;;;1.92;1.30;;;21.60;54.50;;;;;;4965371;28;20142;-89
2022/07/18 06:54:27;;;;;;;4.13;1.00;;;21.70;55.40;;;;;;4967518;28;20039;-88
2022/07/18 06:56:56;;;;;;;2.67;1.30;;;21.70;54.60;;;;;;4991988;28;20141;-88
2022/07/18 06:59:59;;;;;;;;;;;;;;;;;;;;;
2022/07/18 07:02:28;;;;;;;2.85;1.20;;;21.80;55.00;;;;;;5002513;28;20057;-88
2022/07/18 07:04:59;;;;;;;3.03;1.05;;;22.00;54.70;;;;;;4966610;28;20482;-88
2022/07/18 07:07:26;;;;;;;2.28;1.10;;;22.10;53.90;;;;;;4990630;28;20514;-90
2022/07/18 07:09:52;;;;;;;1.95;1.33;;;22.20;54.10;;;;;;4979584;28;20480;-89
2022/07/18 07:12:17;;;;;;;1.33;1.20;;;22.30;53.60;;;;;;4963614;28;20035;-89
2022/07/18 07:18:30;;;;;;;1.05;0.80;;;22.50;53.60;;;;;;5000666;28;20565;-89
2022/07/18 07:20:56;;;;;;;3.17;1.55;;;22.70;53.80;;;;;;4978534;28;20034;-89
2022/07/18 07:23:29;;;;;;;4.22;1.13;;;22.80;52.70;;;;;;4968090;28;20220;-89
2022/07/18 07:26:25;;;;;;;4.43;1.00;;;22.90;51.80;;;;;;4990932;28;20475;-89
2022/07/18 07:28:51;;;;;;;2.47;1.15;;;23.10;51.40;;;;;;4973787;28;20349;-90
2022/07/18 07:31:46;;;;;;;8.10;1.25;;;23.20;51.50;;;;;;4986670;28;20030;-90
2022/07/18 07:34:30;;;;;;;5.55;1.10;;;23.30;50.30;;;;;;4976996;28;20050;-88
2022/07/18 07:36:59;;;;;;;3.47;1.05;;;23.20;50.60;;;;;;4990913;28;20039;-90
2022/07/18 07:40:19;;;;;;;;;;;;;;;;;;;;;
2022/07/18 07:43:10;;;;;;;2.42;1.08;;;23.50;51.70;;;;;;5004757;28;20770;-88
2022/07/18 07:45:37;;;;;;;2.00;1.10;;;23.60;50.60;;;;;;4990596;28;20034;-91
2022/07/18 07:48:03;;;;;;;3.28;1.10;;;23.70;50.60;;;;;;4970330;28;20034;-90
2022/07/18 07:50:30;;;;;;;6.32;1.40;;;23.80;49.90;;;;;;4975842;28;20023;-89
2022/07/18 07:53:05;;;;;;;2.53;1.10;;;23.90;50.50;;;;;;4960189;28;20026;-89
2022/07/18 07:55:31;;;;;;;4.35;1.17;;;24.00;50.00;;;;;;4974614;28;20510;-87
2022/07/18 07:57:57;;;;;;;3.33;1.48;;;24.30;49.70;;;;;;4978771;28;20039;-86
2022/07/18 08:00:24;;;;;;;5.82;1.60;;;25.40;49.00;;;;;;5002770;28;20161;-89
2022/07/18 08:03:01;;;;;;;1.33;0.88;;;27.00;47.20;;;;;;5005169;28;20096;-89
2022/07/18 08:05:29;;;;;;;2.70;0.98;;;28.40;44.60;;;;;;4968411;28;20533;-87
2022/07/18 08:08:20;;;;;;;2.17;0.95;;;29.10;43.40;;;;;;4970398;28;20027;-88
2022/07/18 08:10:55;;;;;;;3.85;1.25;;;29.30;42.80;;;;;;4996681;28;20062;-89
2022/07/18 08:13:21;;;;;;;2.40;1.20;;;30.20;42.10;;;;;;4991650;28;20026;-88
2022/07/18 08:15:55;;;;;;;2.25;0.85;;;30.50;41.70;;;;;;4966588;28;20039;-89
2022/07/18 08:18:21;;;;;;;4.90;1.35;;;31.40;40.90;;;;;;4973525;28;20031;-88
2022/07/18 08:20:47;;;;;;;4.25;1.13;;;32.00;40.50;;;;;;4964474;28;20038;-88
2022/07/18 08:23:12;;;;;;;3.47;1.30;;;32.40;39.80;;;;;;4968508;28;20030;-88
2022/07/18 08:25:40;;;;;;;3.40;1.13;;;33.00;38.80;;;;;;4989768;28;20078;-88
2022/07/18 08:28:10;;;;;;;10.02;0.98;;;33.10;39.40;;;;;;5005116;28;20695;-88
2022/07/18 08:30:38;;;;;;;3.72;0.98;;;32.60;39.40;;;;;;4982480;28;20030;-89
2022/07/18 08:33:05;;;;;;;4.95;1.02;;;32.20;38.50;;;;;;5026968;28;20022;-90
2022/07/18 08:35:32;;;;;;;2.33;1.10;;;32.50;38.80;;;;;;4987329;28;20062;-92
2022/07/18 08:37:59;;;;;;;2.42;1.05;;;32.80;39.10;;;;;;5020157;28;20031;-88
2022/07/18 08:40:28;;;;;;;3.50;1.30;;;33.00;38.90;;;;;;4999428;28;20026;-88
2022/07/18 08:42:57;;;;;;;3.33;1.27;;;33.00;38.30;;;;;;5002322;28;20018;-88
2022/07/18 08:45:25;;;;;;;2.72;1.08;;;32.50;37.60;;;;;;4995909;28;20050;-89
2022/07/18 08:47:52;;;;;;;3.45;1.40;;;32.40;38.70;;;;;;5023485;28;20042;-91
2022/07/18 08:50:26;;;;;;;2.55;1.35;;;32.30;38.90;;;;;;5011964;28;20022;-89
2022/07/18 08:52:53;;;;;;;3.35;1.30;;;32.00;38.90;;;;;;5016443;28;20046;-89
2022/07/18 08:55:19;;;;;;;2.38;1.40;;;32.50;38.00;;;;;;5004532;28;20030;-90
2022/07/18 08:57:44;;;;;;;3.55;1.90;;;32.30;38.60;;;;;;5026909;28;20026;-90
2022/07/18 09:00:21;;;;;;;;;;;;;;;;;;;;;
2022/07/18 09:03:01;;;;;;;2.78;0.95;;;32.60;37.90;;;;;;5026222;28;20018;-88
2022/07/18 09:05:27;;;;;;;2.47;1.20;;;32.60;37.60;;;;;;5008895;23;20042;-88
2022/07/18 09:08:19;;;;;;;4.80;1.30;;;33.40;38.00;;;;;;5000577;28;20030;-88
2022/07/18 09:11:00;;;;;;;4.63;1.23;;;34.00;36.60;;;;;;4975190;28;20055;-88
2022/07/18 09:13:42;;;;;;;4.90;1.13;;;34.80;36.80;;;;;;4974844;28;20034;-88
2022/07/18 09:16:14;;;;;;;2.53;1.10;;;35.30;37.20;;;;;;4959619;28;20533;-89
2022/07/18 09:18:45;;;;;;;2.85;1.33;;;35.30;35.70;;;;;;4959397;28;20097;-89
2022/07/18 09:21:22;;;;;;;4.28;1.33;;;34.20;36.30;;;;;;4959218;28;20094;-87
2022/07/18 09:23:51;;;;;;;4.95;1.20;;;34.40;36.40;;;;;;4975374;28;20376;-89
2022/07/18 09:26:35;;;;;;;4.30;1.30;;;34.50;35.10;;;;;;4959499;28;20041;-88
2022/07/18 09:29:02;;;;;;;3.15;1.08;;;34.30;35.80;;;;;;4958984;28;20039;-91
2022/07/18 09:31:28;;;;;;;2.97;1.40;;;34.50;36.50;;;;;;4976343;28;20042;-91
2022/07/18 09:34:02;;;;;;;2.50;1.20;;;33.30;36.40;;;;;;4974887;28;20031;-87
2022/07/18 09:36:29;;;;;;;4.20;1.50;;;33.40;35.70;;;;;;4968921;28;20035;-88
2022/07/18 09:38:55;;;;;;;2.72;1.02;;;34.40;36.20;;;;;;4958367;28;20491;-89
2022/07/18 09:41:32;;;;;;;4.95;1.40;;;34.90;35.20;;;;;;4974664;28;20463;-87
2022/07/18 09:43:58;;;;;;;5.13;1.30;;;35.10;35.30;;;;;;4974594;28;20097;-88
2022/07/18 09:46:24;;;;;;;4.20;1.23;;;35.30;34.70;;;;;;4958411;28;20027;-88
2022/07/18 09:49:09;;;;;;;5.05;1.50;;;35.60;34.50;;;;;;4974262;28;20030;-89
2022/07/18 09:51:35;;;;;;;1.33;0.95;;;35.80;35.80;;;;;;4973827;28;20030;-88
2022/07/18 09:54:02;;;;;;;6.25;1.08;;;35.80;35.10;;;;;;4958588;28;20086;-87
2022/07/18 09:56:33;;;;;;;2.25;1.30;;;35.40;34.70;;;;;;4958824;28;20049;-89
2022/07/18 09:58:59;;;;;;;2.70;1.20;;;35.60;34.20;;;;;;4975940;28;20035;-88
2022/07/18 10:01:25;;;;;;;1.83;1.48;;;35.90;34.60;;;;;;4957913;28;20125;-87
2022/07/18 10:03:51;;;;;;;2.30;1.20;;;35.90;34.50;;;;;;4974301;28;20441;-88
2022/07/18 10:06:54;;;;;;;3.50;0.80;;;36.30;34.90;;;;;;4957461;28;20085;-88
2022/07/18 10:09:20;;;;;;;1.20;1.10;;;35.70;33.90;;;;;;4972543;28;20758;-88
2022/07/18 10:11:46;;;;;;;2.33;1.20;;;35.50;34.10;;;;;;4958180;28;20038;-88
2022/07/18 10:14:12;;;;;;;2.80;1.23;;;35.30;34.50;;;;;;4958009;28;20477;-88
2022/07/18 10:16:38;;;;;;;7.53;1.50;;;35.20;33.80;;;;;;4958092;28;20065;-88
2022/07/18 10:19:04;;;;;;;2.28;1.08;;;34.90;34.70;;;;;;4974617;28;20073;-89
2022/07/18 10:21:31;;;;;;;4.82;1.17;;;34.40;36.00;;;;;;4974514;28;20730;-88
2022/07/18 10:24:00;;;;;;;3.45;1.30;;;34.00;36.00;;;;;;4973688;28;20031;-87
2022/07/18 10:26:28;;;;;;;3.10;1.40;;;33.60;36.70;;;;;;4957980;28;20030;-88
2022/07/18 10:28:59;;;;;;;3.75;1.35;;;33.50;36.70;;;;;;4974899;28;20041;-88
2022/07/18 10:31:27;;;;;;;5.97;1.20;;;32.50;36.60;;;;;;4958028;28;20041;-88
2022/07/18 10:34:08;;;;;;;2.97;1.20;;;32.40;38.30;;;;;;4957756;28;20050;-87
2022/07/18 10:36:38;;;;;;;2.85;1.33;;;31.90;38.10;;;;;;4974157;28;20085;-87
2022/07/18 10:39:13;;;;;;;4.63;1.40;;;32.30;38.40;;;;;;4957967;28;20042;-88
2022/07/18 10:41:39;;;;;;;6.35;1.40;;;32.60;37.00;;;;;;4957630;28;20294;-88
2022/07/18 10:44:26;;;;;;;3.20;1.00;;;32.80;36.80;;;;;;4953313;28;20178;-88
2022/07/18 10:47:17;;;;;;;4.65;1.20;;;33.20;36.50;;;;;;4956943;28;20478;-88
2022/07/18 10:49:45;;;;;;;;;;;33.50;36.50;;;;;;4958075;28;20085;-90
2022/07/18 10:52:26;;;;;;;4.47;1.23;;;33.80;35.50;;;;;;4958879;28;19972;-89
2022/07/18 10:55:04;;;;;;;4.55;1.27;;;33.60;37.50;;;;;;4973926;28;20137;-88
2022/07/18 10:57:41;;;;;;;1.95;1.08;;;34.00;36.40;;;;;;4973800;28;20039;-89
2022/07/18 11:00:10;;;;;;;6.32;1.33;;;34.20;35.70;;;;;;4957213;28;20137;-89
2022/07/18 11:02:40;;;;;;;6.30;1.25;;;34.20;35.30;;;;;;4973739;28;20027;-89
2022/07/18 11:05:26;;;;;;;4.60;1.05;;;34.20;36.20;;;;;;4959178;28;20043;-88
2022/07/18 11:08:00;;;;;;;5.00;1.45;;;33.30;35.50;;;;;;4972832;28;20564;-89
2022/07/18 11:10:51;;;;;;;1.52;1.35;;;33.40;35.70;;;;;;4958862;28;20486;-89
2022/07/18 11:15:56;;;;;;;2.42;1.10;;;34.30;35.70;;;;;;4973335;28;20039;-88
2022/07/18 11:18:22;;;;;;;3.15;1.50;;;34.20;35.30;;;;;;4973550;28;20512;-89
2022/07/18 11:20:48;;;;;;;3.22;1.58;;;34.50;35.00;;;;;;4973438;28;20129;-88
2022/07/18 11:23:25;;;;;;;3.53;1.35;;;34.40;35.80;;;;;;4973043;28;20066;-90
2022/07/18 11:25:56;;;;;;;2.15;1.50;;;34.20;34.90;;;;;;4972972;28;20031;-89
2022/07/18 11:28:23;;;;;;;2.05;1.15;;;34.60;35.00;;;;;;4973619;28;20097;-90
2022/07/18 11:31:06;;;;;;;1.83;1.45;;;34.80;34.50;;;;;;4973904;28;20502;-90
2022/07/18 11:33:35;;;;;;;4.55;1.30;;;34.00;35.00;;;;;;4972681;28;20089;-90
2022/07/18 11:36:11;;;;;;;3.03;1.40;;;34.00;37.00;;;;;;4973347;28;20118;-89
2022/07/18 11:38:39;;;;;;;2.50;1.30;;;34.30;35.70;;;;;;4973387;28;20085;-90
2022/07/18 11:41:05;;;;;;;1.83;1.20;;;34.70;34.70;;;;;;4973591;28;20457;-88
2022/07/18 11:43:31;;;;;;;6.55;1.50;;;35.00;34.70;;;;;;4955510;28;20102;-89
2022/07/18 11:46:04;;;;;;;4.15;1.15;;;35.30;33.90;;;;;;4988871;28;20111;-90
2022/07/18 11:48:32;;;;;;;2.92;1.33;;;34.70;35.40;;;;;;4952448;28;20070;-89
2022/07/18 11:50:58;;;;;;;6.32;1.50;;;34.70;35.20;;;;;;4957137;28;20038;-88
2022/07/18 11:53:24;;;;;;;5.60;1.17;;;34.60;36.50;;;;;;4973683;28;20033;-89
2022/07/18 11:55:50;;;;;;;3.55;1.60;;;34.60;35.00;;;;;;4957221;28;20133;-88
2022/07/18 11:58:16;;;;;;;2.90;1.50;;;34.40;35.70;;;;;;4957076;28;20779;-89
2022/07/18 12:00:43;;;;;;;3.90;1.30;;;34.20;35.80;;;;;;4972698;28;20140;-88
2022/07/18 12:03:18;;;;;;;1.55;1.02;;;34.20;35.70;;;;;;4956102;28;20030;-89
2022/07/18 12:05:52;;;;;;;4.35;1.25;;;33.80;35.50;;;;;;4953833;28;20034;-88
2022/07/18 12:08:28;;;;;;;1.88;1.05;;;33.40;36.20;;;;;;4972555;28;20431;-88
2022/07/18 12:11:09;;;;;;;5.32;1.25;;;33.50;36.20;;;;;;4973075;28;20089;-90
2022/07/18 12:13:50;;;;;;;7.72;1.25;;;33.40;35.80;;;;;;4973212;28;20073;-89
2022/07/18 12:16:37;;;;;;;8.82;1.58;;;33.30;36.00;;;;;;4976521;28;20039;-90
2022/07/18 12:19:08;;;;;;;3.55;1.20;;;33.20;36.50;;;;;;4960408;28;20056;-87
2022/07/18 12:21:56;;;;;;;5.30;1.30;;;33.00;36.50;;;;;;4960423;28;20035;-88
2022/07/18 12:24:31;;;;;;;1.80;1.13;;;33.30;36.60;;;;;;4976095;28;20050;-88
2022/07/18 12:27:16;;;;;;;5.07;1.23;;;33.70;36.70;;;;;;4977398;28;20050;-89
2022/07/18 12:30:03;;;;;;;2.63;1.50;;;33.80;36.00;;;;;;4960247;28;20054;-89
2022/07/18 12:32:38;;;;;;;5.15;1.17;;;34.10;35.80;;;;;;4960495;28;20058;-88
2022/07/18 12:35:27;;;;;;;3.00;1.33;;;34.30;36.40;;;;;;4976271;28;20041;-89
2022/07/18 12:38:03;;;;;;;2.85;1.33;;;34.90;35.70;;;;;;4976579;28;20067;-88
2022/07/18 12:41:01;;;;;;;6.40;1.98;;;35.30;35.50;;;;;;4976064;28;20098;-88
2022/07/18 12:43:33;;;;;;;4.60;1.17;;;35.30;34.80;;;;;;4959411;28;20030;-90
2022/07/18 12:46:02;;;;;;;5.88;1.30;;;34.40;35.10;;;;;;4960505;28;20102;-88
2022/07/18 12:48:30;;;;;;;5.95;1.30;;;34.20;35.50;;;;;;4976884;28;20035;-90
2022/07/18 12:51:00;;;;;;;7.75;1.38;;;34.40;36.00;;;;;;4976027;28;20035;-90
2022/07/18 12:53:45;;;;;;;3.22;1.20;;;35.20;35.10;;;;;;4972559;28;20038;-90
2022/07/18 12:56:29;;;;;;;5.72;1.95;;;35.60;35.10;;;;;;4976426;28;20395;-90
2022/07/18 12:58:55;;;;;;;3.10;1.52;;;36.10;34.30;;;;;;4958341;28;20110;-91
2022/07/18 13:01:21;;;;;;;3.55;1.52;;;36.60;32.80;;;;;;4974595;28;20446;-90
2022/07/18 13:03:47;;;;;;;6.22;1.58;;;36.30;33.20;;;;;;4960054;28;20509;-89
2022/07/18 13:06:12;;;;;;;1.30;1.17;;;36.30;33.70;;;;;;4960093;28;20022;-90
2022/07/18 13:08:38;;;;;;;5.18;1.27;;;36.40;34.10;;;;;;4960038;28;20045;-89
2022/07/18 13:11:04;;;;;;;2.53;1.25;;;36.70;33.50;;;;;;4975768;28;20627;-89
2022/07/18 13:13:30;;;;;;;5.78;1.27;;;36.80;33.70;;;;;;4959920;28;20039;-89
2022/07/18 13:15:55;;;;;;;5.43;1.40;;;36.30;34.00;;;;;;4959729;28;20035;-90